Time;durP1;ratioP1;P1;durP2;ratioP2;P2;SDS_P1;SDS_P2;PMS_P1;PMS_P2;Temp;Humidity;BMP_temperature;BMP_pressure;BME280_temperature;BME280_humidity;BME280_pressure;Samples;Min_cycle;Max_cycle;Signal;HPM_P1;HPM_P2
2023/06/18 00:00:35;;;;;;;8.48;2.90;;;;;;;17.99;100.00;99868.75;4987206;28;20116;-73
2023/06/18 00:03:00;;;;;;;4.40;2.88;;;;;;;18.43;100.00;99955.56;4987813;28;20782;-72
2023/06/18 00:05:26;;;;;;;5.22;3.40;;;;;;;17.84;100.00;99858.72;4987543;28;20034;-71
2023/06/18 00:07:53;;;;;;;5.65;3.42;;;;;;;17.85;100.00;99863.97;4987590;28;20514;-72
2023/06/18 00:10:18;;;;;;;7.10;4.40;;;;;;;18.26;100.00;99949.13;4986186;28;20499;-72
2023/06/18 00:12:44;;;;;;;4.70;2.33;;;;;;;18.25;100.00;99968.63;4987166;28;20037;-72
2023/06/18 00:15:10;;;;;;;4.15;3.00;;;;;;;18.01;100.00;99908.53;4987264;28;20354;-72
2023/06/18 00:17:35;;;;;;;6.10;2.40;;;;;;;18.22;100.00;99954.63;4985393;28;20077;-72
2023/06/18 00:20:01;;;;;;;5.07;2.78;;;;;;;17.50;100.00;99873.25;4987319;28;20037;-72
2023/06/18 00:22:27;;;;;;;3.72;2.78;;;;;;;17.95;100.00;99964.50;4987180;28;20038;-73
2023/06/18 00:24:52;;;;;;;5.40;3.47;;;;;;;17.51;100.00;99881.16;4986906;28;20038;-72
2023/06/18 00:27:20;;;;;;;3.45;2.20;;;;;;;18.17;100.00;99975.16;4985787;28;20039;-72
2023/06/18 00:29:47;;;;;;;3.72;2.42;;;;;;;17.66;100.00;99884.16;4990446;28;20031;-73
2023/06/18 00:32:14;;;;;;;6.13;3.83;;;;;;;18.32;100.00;99999.34;4989074;28;20041;-72
2023/06/18 00:34:41;;;;;;;5.88;2.65;;;;;;;18.28;100.00;100008.34;4978777;28;20026;-73
2023/06/18 00:37:09;;;;;;;6.30;3.22;;;;;;;18.17;100.00;99984.00;4991131;28;20031;-73
2023/06/18 00:39:38;;;;;;;5.28;2.58;;;;;;;17.59;100.00;99893.28;4991156;28;20031;-73
2023/06/18 00:42:05;;;;;;;9.30;3.55;;;;;;;17.70;100.00;99891.94;4990809;28;20117;-72
2023/06/18 00:44:33;;;;;;;5.38;2.20;;;;;;;16.92;100.00;99779.94;4991336;28;20038;-72
2023/06/18 00:46:59;;;;;;;9.05;4.10;;;;;;;18.18;100.00;99987.53;4990518;28;20069;-71
2023/06/18 00:49:27;;;;;;;4.15;3.15;;;;;;;17.37;100.00;99885.22;4990026;28;20499;-72
2023/06/18 00:51:53;;;;;;;8.30;2.85;;;;;;;17.36;100.00;99884.34;4990784;28;20120;-73
2023/06/18 00:54:19;;;;;;;3.45;2.47;;;;;;;17.42;100.00;99891.22;4990097;28;20506;-73
2023/06/18 00:56:52;;;;;;;6.63;3.15;;;;;;;17.35;100.00;99884.41;4990319;28;20031;-73
2023/06/18 00:59:22;;;;;;;6.13;3.58;;;;;;;17.95;100.00;99991.03;4990692;28;20089;-72
2023/06/18 01:01:51;;;;;;;6.00;4.65;;;;;;;16.54;100.00;99775.03;4990324;28;20486;-72
2023/06/18 01:04:17;;;;;;;5.95;3.65;;;;;;;18.18;100.00;100014.09;4990850;28;20470;-73
2023/06/18 01:06:43;;;;;;;5.15;3.38;;;;;;;17.82;100.00;99940.22;4990274;28;20045;-73
2023/06/18 01:09:12;;;;;;;5.75;3.63;;;;;;;18.16;100.00;99990.22;4988841;28;20034;-72
2023/06/18 01:11:40;;;;;;;4.32;2.78;;;;;;;18.23;100.00;100042.19;4990143;28;20038;-72
2023/06/18 01:14:09;;;;;;;6.72;3.55;;;;;;;18.37;100.00;100036.34;4990017;28;20045;-72
2023/06/18 01:16:46;;;;;;;5.95;4.55;;;;;;;18.51;100.00;100028.72;4990256;28;20034;-73
2023/06/18 01:19:23;;;;;;;5.05;3.80;;;;;;;18.45;100.00;100020.09;4988988;28;20092;-73
2023/06/18 01:21:58;;;;;;;5.47;3.22;;;;;;;18.46;100.00;100028.03;4970992;28;20058;-73
2023/06/18 01:24:28;;;;;;;5.40;3.28;;;;;;;18.43;100.00;100040.59;4970944;28;20074;-73
2023/06/18 01:26:57;;;;;;;6.30;3.92;;;;;;;18.23;100.00;99994.38;4970985;28;20042;-72
2023/06/18 01:29:26;;;;;;;8.13;4.40;;;;;;;18.41;100.00;100022.03;4970819;28;20031;-72
2023/06/18 01:31:52;;;;;;;6.20;3.40;;;;;;;18.07;100.00;99962.22;4970745;28;20044;-72
2023/06/18 01:34:17;;;;;;;5.95;3.55;;;;;;;18.64;100.00;100074.28;4969125;28;20031;-72
2023/06/18 01:37:09;;;;;;;4.40;2.90;;;;;;;18.64;100.00;100068.97;4970486;28;20019;-73
2023/06/18 01:39:43;;;;;;;5.35;3.30;;;;;;;18.53;100.00;100047.25;5000863;28;20063;-73
2023/06/18 01:42:19;;;;;;;6.32;4.03;;;;;;;18.65;100.00;100059.22;4970224;28;20112;-73
2023/06/18 01:44:50;;;;;;;4.45;2.95;;;;;;;18.44;100.00;100021.91;4970214;28;20039;-72
2023/06/18 01:47:18;;;;;;;5.68;3.60;;;;;;;18.69;100.00;100071.47;4970452;28;20486;-73
2023/06/18 01:49:45;;;;;;;4.68;2.95;;;;;;;18.11;100.00;99966.50;4989066;28;20038;-73
2023/06/18 01:52:16;;;;;;;6.55;4.13;;;;;;;18.26;100.00;100015.53;4987868;28;20042;-73
2023/06/18 01:54:46;;;;;;;7.95;4.00;;;;;;;17.74;100.00;99919.22;4989770;28;20125;-72
2023/06/18 01:57:13;;;;;;;4.78;2.80;;;;;;;17.94;100.00;99960.97;4989144;28;20034;-73
2023/06/18 01:59:43;;;;;;;6.95;4.32;;;;;;;17.98;100.00;99969.69;4990071;28;20525;-73
2023/06/18 02:02:10;;;;;;;5.43;3.10;;;;;;;18.41;100.00;100043.28;4989540;28;20030;-73
2023/06/18 02:04:36;;;;;;;7.47;3.17;;;;;;;18.05;100.00;99989.75;4989648;28;20069;-73
2023/06/18 02:07:02;;;;;;;5.53;4.57;;;;;;;17.93;100.00;99975.16;4989208;28;20085;-72
2023/06/18 02:09:28;;;;;;;4.45;2.78;;;;;;;18.38;100.00;100069.97;4989251;28;20096;-72
2023/06/18 02:11:53;;;;;;;6.60;3.80;;;;;;;17.95;100.00;99993.69;4988746;28;20042;-72
2023/06/18 02:14:19;;;;;;;5.70;3.15;;;;;;;17.72;100.00;99952.91;4989366;28;20549;-73
2023/06/18 02:16:45;;;;;;;6.32;3.78;;;;;;;17.88;100.00;99974.47;4988958;28;20045;-73
2023/06/18 02:19:11;;;;;;;5.75;3.42;;;;;;;18.53;100.00;100080.00;4974077;28;20030;-73
2023/06/18 02:21:36;;;;;;;7.72;4.45;;;;;;;17.96;100.00;99976.84;4989383;28;20088;-73
2023/06/18 02:24:02;;;;;;;5.20;3.70;;;;;;;18.35;100.00;100059.44;5020277;28;20030;-72
2023/06/18 02:26:27;;;;;;;7.90;3.38;;;;;;;18.38;100.00;100069.09;4988952;28;20794;-72
2023/06/18 02:28:53;;;;;;;10.65;3.63;;;;;;;18.49;100.00;100081.03;4988395;28;20469;-73
2023/06/18 02:31:18;;;;;;;7.32;3.97;;;;;;;18.20;100.00;100034.34;4988856;28;20208;-73
2023/06/18 02:33:44;;;;;;;4.40;3.17;;;;;;;18.43;100.00;100069.81;4988958;28;20034;-73
2023/06/18 02:36:10;;;;;;;6.95;3.92;;;;;;;18.09;100.00;100016.13;4988874;28;20038;-72
2023/06/18 02:38:35;;;;;;;3.95;2.60;;;;;;;18.45;100.00;100083.88;4988758;28;20521;-72
2023/06/18 02:41:01;;;;;;;5.35;3.47;;;;;;;18.50;100.00;100088.09;4988388;28;20034;-72
2023/06/18 02:43:30;;;;;;;5.15;3.90;;;;;;;18.34;100.00;100085.16;4988539;28;20154;-73
2023/06/18 02:45:56;;;;;;;9.07;3.83;;;;;;;18.29;100.00;100084.47;4988421;28;20117;-73
2023/06/18 02:48:22;;;;;;;5.18;3.40;;;;;;;18.34;100.00;100102.88;4987641;28;20514;-73
2023/06/18 02:50:48;;;;;;;4.38;2.83;;;;;;;18.21;100.00;100064.41;4987415;28;20111;-72
2023/06/18 02:53:13;;;;;;;6.75;3.10;;;;;;;16.82;100.00;99822.66;4988627;28;20030;-72
2023/06/18 02:55:41;;;;;;;8.70;5.40;;;;;;;17.83;100.00;99992.34;4987859;28;20461;-72
2023/06/18 02:58:28;;;;;;;6.78;4.22;;;;;;;17.79;100.00;99978.28;4988305;28;20030;-72
2023/06/18 03:00:56;;;;;;;5.75;3.35;;;;;;;18.55;100.00;100094.09;4988181;28;20077;-72
2023/06/18 03:03:23;;;;;;;9.18;5.85;;;;;;;18.61;100.00;100103.63;4987801;28;20026;-72
2023/06/18 03:05:49;;;;;;;7.15;3.80;;;;;;;18.54;100.00;100086.19;4988064;28;20045;-73
2023/06/18 03:08:14;;;;;;;6.07;4.57;;;;;;;18.02;100.00;99987.22;4987986;28;20026;-72
2023/06/18 03:10:42;;;;;;;6.55;4.18;;;;;;;18.46;100.00;100062.56;4987949;28;20376;-73
2023/06/18 03:13:08;;;;;;;5.07;4.03;;;;;;;18.29;100.00;100014.53;4987837;28;20030;-73
2023/06/18 03:15:33;;;;;;;7.60;5.05;;;;;;;18.08;100.00;99976.41;4987987;28;20038;-73
2023/06/18 03:17:59;;;;;;;5.93;4.70;;;;;;;18.85;100.00;100104.53;4987367;28;20026;-73
2023/06/18 03:20:24;;;;;;;6.60;5.20;;;;;;;17.73;100.00;99918.34;4987734;28;20030;-73
2023/06/18 03:22:50;;;;;;;11.35;4.50;;;;;;;18.66;100.00;100083.09;4988032;28;20053;-73
2023/06/18 03:25:15;;;;;;;7.80;4.75;;;;;;;17.97;100.00;99936.09;4987720;28;20236;-73
2023/06/18 03:27:43;;;;;;;8.10;3.88;;;;;;;18.39;100.00;100013.25;4987501;28;20054;-73
2023/06/18 03:30:09;;;;;;;5.25;4.25;;;;;;;18.30;100.00;99992.34;4987832;28;20042;-74
2023/06/18 03:32:35;;;;;;;5.82;4.00;;;;;;;18.09;100.00;99954.22;4987998;28;20137;-73
2023/06/18 03:35:04;;;;;;;4.90;3.47;;;;;;;17.98;100.00;99940.47;4987656;28;20037;-72
2023/06/18 03:37:30;;;;;;;7.10;4.38;;;;;;;18.92;100.00;100092.72;4987950;28;20040;-72
2023/06/18 03:39:57;;;;;;;7.00;4.32;;;;;;;19.01;100.00;100094.16;4987878;28;20041;-72
2023/06/18 03:42:24;;;;;;;8.20;4.57;;;;;;;18.14;100.00;99961.09;4987727;28;20554;-72
2023/06/18 03:44:49;;;;;;;6.55;5.03;;;;;;;19.03;100.00;100091.41;4987781;28;20150;-73
2023/06/18 03:47:16;;;;;;;7.70;4.05;;;;;;;19.03;100.00;100073.66;4987659;28;20124;-73
2023/06/18 03:49:41;;;;;;;9.60;4.32;;;;;;;18.56;100.00;99975.38;4986373;28;20034;-73
2023/06/18 03:52:07;;;;;;;6.05;3.60;;;;;;;19.01;100.00;100062.25;4987722;28;20426;-73
2023/06/18 03:54:32;;;;;;;6.00;4.68;;;;;;;19.12;100.00;100064.44;4986979;28;20395;-72
2023/06/18 03:56:58;;;;;;;5.35;3.45;;;;;;;18.52;100.00;99961.38;4987058;28;20034;-73
2023/06/18 03:59:24;;;;;;;5.75;3.97;;;;;;;18.69;100.00;99968.66;4987208;28;20034;-72
2023/06/18 04:01:50;;;;;;;7.50;3.85;;;;;;;19.11;100.00;100052.09;4987632;28;20049;-73
2023/06/18 04:04:16;;;;;;;4.97;4.28;;;;;;;19.17;100.00;100049.16;4991197;28;20031;-73
2023/06/18 04:06:41;;;;;;;5.75;4.63;;;;;;;19.25;100.00;100051.53;4991535;28;20030;-72
2023/06/18 04:09:08;;;;;;;8.90;4.47;;;;;;;18.74;100.00;99972.00;4991313;28;20037;-73
2023/06/18 04:11:36;;;;;;;6.53;4.82;;;;;;;19.31;100.00;100061.88;4989727;28;20813;-73
2023/06/18 04:14:02;;;;;;;4.43;3.53;;;;;;;18.80;100.00;99967.38;4989872;28;20394;-73
2023/06/18 04:16:28;;;;;;;4.82;4.05;;;;;;;19.36;100.00;100059.91;4991254;28;20038;-73
2023/06/18 04:18:53;;;;;;;5.63;4.28;;;;;;;19.14;100.00;100020.91;4990414;28;20026;-73
2023/06/18 04:21:19;;;;;;;8.50;5.28;;;;;;;19.56;100.00;100083.03;4991222;28;20038;-73
2023/06/18 04:23:44;;;;;;;7.95;4.10;;;;;;;19.09;100.00;99990.97;4991301;28;20406;-73
2023/06/18 04:26:10;;;;;;;7.03;5.03;;;;;;;18.93;100.00;99984.56;4990807;28;20038;-73
2023/06/18 04:28:35;;;;;;;6.40;4.65;;;;;;;19.49;100.00;100078.91;4991122;28;20091;-73
2023/06/18 04:31:01;;;;;;;6.28;4.30;;;;;;;19.47;100.00;100072.75;4991019;28;20034;-73
2023/06/18 04:33:26;;;;;;;7.93;4.03;;;;;;;19.60;100.00;100090.81;4990887;28;20096;-73
2023/06/18 04:35:52;;;;;;;7.03;3.03;;;;;;;19.73;100.00;100091.16;4990787;28;20818;-73
2023/06/18 04:38:17;;;;;;;5.20;3.40;;;;;;;19.81;100.00;100086.41;4989856;28;20038;-73
2023/06/18 04:40:43;;;;;;;8.80;3.00;;;;;;;19.05;100.00;99980.53;4991145;28;20038;-73
2023/06/18 04:43:08;;;;;;;4.82;3.33;;;;;;;19.05;100.00;99961.91;4991202;28;20042;-73
2023/06/18 04:45:34;;;;;;;4.78;2.50;;;;;;;19.27;100.00;99976.03;4990994;28;20026;-73
2023/06/18 04:47:59;;;;;;;4.45;3.13;;;;;;;19.79;100.00;100074.09;4990201;28;20042;-73
2023/06/18 04:50:25;;;;;;;4.40;3.30;;;;;;;19.53;100.00;100014.81;4990634;28;20781;-72
2023/06/18 04:52:50;;;;;;;5.75;3.13;;;;;;;20.14;100.00;100079.66;4989073;28;20490;-73
2023/06/18 04:55:16;;;;;;;4.63;2.92;;;;;;;19.58;100.00;99990.66;4988994;28;20069;-73
2023/06/18 04:57:41;;;;;;;4.13;2.75;;;;;;;19.80;100.00;100014.56;4990514;28;20034;-71
2023/06/18 05:00:08;;;;;;;5.18;3.25;;;;;;;20.19;100.00;100075.84;4990460;28;20042;-72
2023/06/18 05:02:34;;;;;;;6.03;3.45;;;;;;;20.37;100.00;100051.94;4990390;28;20555;-72
2023/06/18 05:05:00;;;;;;;8.35;3.78;;;;;;;19.63;100.00;99918.59;4990570;28;20121;-73
2023/06/18 05:07:26;;;;;;;5.32;3.42;;;;;;;20.86;100.00;100081.66;4990305;28;20042;-72
2023/06/18 05:09:51;;;;;;;6.22;3.97;;;;;;;21.38;100.00;100095.13;4990500;28;20038;-72
2023/06/18 05:12:16;;;;;;;4.82;3.20;;;;;;;20.71;100.00;99997.94;4990621;28;20049;-73
2023/06/18 05:14:42;;;;;;;4.57;3.22;;;;;;;21.54;100.00;100081.91;4989398;28;20732;-72
2023/06/18 05:17:07;;;;;;;3.65;2.25;;;;;;;21.19;100.00;100012.47;4990366;28;20066;-73
2023/06/18 05:19:33;;;;;;;7.43;3.13;;;;;;;21.15;100.00;100013.53;4989593;28;20049;-73
2023/06/18 05:21:58;;;;;;;6.00;2.88;;;;;;;22.13;100.00;100099.31;4989819;28;20030;-73
2023/06/18 05:24:24;;;;;;;4.32;3.15;;;;;;;22.29;100.00;100120.78;4989837;28;20072;-73
2023/06/18 05:26:49;;;;;;;3.95;2.20;;;;;;;22.50;100.00;100109.84;4990223;28;20042;-72
2023/06/18 05:29:18;;;;;;;3.08;2.10;;;;;;;21.67;100.00;100007.38;4989950;28;20037;-72
2023/06/18 05:31:44;;;;;;;3.75;2.40;;;;;;;21.71;100.00;99961.72;4987869;28;20569;-72
2023/06/18 05:34:10;;;;;;;5.32;3.25;;;;;;;22.18;100.00;100026.91;4989546;28;20034;-73
2023/06/18 05:36:35;;;;;;;4.60;2.90;;;;;;;22.76;100.00;100129.84;4988996;28;20703;-73
2023/06/18 05:39:02;;;;;;;4.45;1.92;;;;;;;22.74;100.00;100113.88;4988880;28;20045;-73
2023/06/18 05:41:28;;;;;;;6.18;2.78;;;;;;;22.89;100.00;100122.84;4988053;28;20024;-72
2023/06/18 05:43:54;;;;;;;6.18;3.00;;;;;;;22.57;100.00;100055.13;4989182;28;20054;-72
2023/06/18 05:46:20;;;;;;;7.00;2.90;;;;;;;23.00;100.00;100119.63;4988637;28;20042;-73
2023/06/18 05:48:45;;;;;;;3.05;2.22;;;;;;;23.15;100.00;100120.56;4988298;28;20129;-73
2023/06/18 05:51:12;;;;;;;5.35;3.03;;;;;;;23.39;100.00;100145.94;4987613;28;20042;-73
2023/06/18 05:53:37;;;;;;;4.07;2.58;;;;;;;23.42;100.00;100142.22;4989008;28;20030;-73
2023/06/18 05:56:03;;;;;;;4.68;3.13;;;;;;;22.99;100.00;100042.09;4989367;28;20054;-73
2023/06/18 05:58:28;;;;;;;5.30;3.15;;;;;;;22.33;100.00;100102.75;4989315;28;20085;-73
2023/06/18 06:00:54;;;;;;;3.80;2.38;;;;;;;23.36;100.00;100130.03;4980759;28;20038;-73
2023/06/18 06:03:20;;;;;;;4.50;2.55;;;;;;;23.70;100.00;100144.16;4983776;28;20462;-73
2023/06/18 06:05:45;;;;;;;3.70;2.25;;;;;;;23.85;100.00;100144.22;4988639;28;20046;-73
2023/06/18 06:08:11;;;;;;;3.42;2.03;;;;;;;23.06;100.00;99996.16;4987521;28;20038;-73
2023/06/18 06:10:36;;;;;;;2.65;1.95;;;;;;;22.99;100.00;100133.94;4988594;28;20411;-73
2023/06/18 06:13:03;;;;;;;2.97;2.08;;;;;;;23.55;100.00;100120.91;4988568;28;20046;-74
2023/06/18 06:15:29;;;;;;;4.18;1.90;;;;;;;23.93;100.00;100145.50;4988868;28;20050;-73
2023/06/18 06:17:54;;;;;;;3.30;1.70;;;;;;;23.44;100.00;100048.41;4988134;28;20038;-73
2023/06/18 06:20:19;;;;;;;4.60;2.25;;;;;;;24.01;100.00;100128.94;4988948;28;20030;-73
2023/06/18 06:22:45;;;;;;;7.72;3.10;;;;;;;24.00;100.00;100143.31;4988632;28;20038;-73
2023/06/18 06:25:10;;;;;;;11.52;2.78;;;;;;;23.32;100.00;100165.09;4988826;28;20092;-74
2023/06/18 06:27:37;;;;;;;3.55;2.72;;;;;;;24.22;100.00;100141.03;5019858;28;20049;-73
2023/06/18 06:30:05;;;;;;;5.13;1.85;;;;;;;23.42;100.00;99996.75;4986740;28;20041;-72
2023/06/18 06:32:30;;;;;;;3.78;2.65;;;;;;;24.61;100.00;100149.44;4988095;28;20093;-73
2023/06/18 06:34:56;;;;;;;4.47;2.05;;;;;;;23.99;100.00;100131.72;4988242;28;20034;-72
2023/06/18 06:37:21;;;;;;;4.05;1.77;;;;;;;24.22;100.00;100106.19;4988013;28;20053;-73
2023/06/18 06:39:48;;;;;;;3.75;1.33;;;;;;;24.46;100.00;100161.94;4988187;28;20034;-73
2023/06/18 06:42:14;;;;;;;4.18;2.53;;;;;;;23.97;100.00;100079.16;4986850;28;20045;-72
2023/06/18 06:44:39;;;;;;;3.67;2.00;;;;;;;24.33;100.00;100150.25;4987880;28;20532;-73
2023/06/18 06:47:05;;;;;;;5.68;2.53;;;;;;;24.23;100.00;100091.84;4987880;28;20030;-73
2023/06/18 06:49:30;;;;;;;2.65;1.90;;;;;;;23.96;100.00;100150.66;4987542;28;20137;-73
2023/06/18 06:51:56;;;;;;;4.57;1.77;;;;;;;24.52;100.00;100152.69;4987939;28;20038;-73
2023/06/18 06:54:23;;;;;;;4.07;1.77;;;;;;;24.31;100.00;100147.66;4987709;28;20089;-73
2023/06/18 06:56:48;;;;;;;3.88;2.25;;;;;;;24.81;100.00;100175.00;4987620;28;20038;-73
2023/06/18 06:59:14;;;;;;;2.50;1.60;;;;;;;24.69;100.00;100165.06;4987625;28;20034;-73
2023/06/18 07:01:40;;;;;;;6.72;2.28;;;;;;;24.69;100.00;100186.53;4987800;28;20507;-74
2023/06/18 07:04:06;;;;;;;2.83;1.85;;;;;;;23.23;100.00;100088.88;4986474;28;20110;-74
2023/06/18 07:06:31;;;;;;;9.70;2.50;;;;;;;23.66;100.00;100109.59;4987599;28;20031;-73
2023/06/18 07:08:57;;;;;;;4.15;1.60;;;;;;;24.26;100.00;100157.81;4987628;28;20088;-73
2023/06/18 07:11:23;;;;;;;2.97;1.80;;;;;;;24.28;100.00;100113.00;4986053;28;20068;-74
2023/06/18 07:13:49;;;;;;;3.50;1.42;;;;;;;24.42;100.00;100152.38;4988402;28;20113;-74
2023/06/18 07:16:14;;;;;;;2.75;1.90;;;;;;;24.31;100.00;100149.50;4987782;28;20040;-73
2023/06/18 07:18:40;;;;;;;3.50;1.70;;;;;;;24.32;100.00;100186.06;4987266;28;20038;-73
2023/06/18 07:21:05;;;;;;;5.60;2.20;;;;;;;24.35;100.00;100162.63;4987754;28;20034;-73
2023/06/18 07:23:31;;;;;;;3.30;1.75;;;;;;;24.46;100.00;100153.03;4978694;28;20034;-73
2023/06/18 07:25:56;;;;;;;1.30;1.00;;;;;;;24.68;100.00;100166.88;4998794;28;20046;-72
2023/06/18 07:28:22;;;;;;;3.63;2.15;;;;;;;24.58;100.00;100107.56;4968177;28;20050;-73
2023/06/18 07:30:47;;;;;;;2.92;1.73;;;;;;;24.80;100.00;100176.84;4967879;28;20046;-73
2023/06/18 07:33:13;;;;;;;1.92;1.42;;;;;;;24.40;100.00;100157.84;4967834;28;20403;-73
2023/06/18 07:35:39;;;;;;;3.17;1.75;;;;;;;24.00;100.00;100120.03;4967832;28;20134;-73
2023/06/18 07:38:05;;;;;;;4.18;2.10;;;;;;;23.94;100.00;100039.16;4967926;28;20065;-73
2023/06/18 07:40:33;;;;;;;2.53;1.50;;;;;;;24.57;100.00;100191.69;4984593;28;20367;-72
2023/06/18 07:43:00;;;;;;;3.88;2.33;;;;;;;24.89;100.00;100161.09;4987240;28;20038;-73
2023/06/18 07:45:25;;;;;;;2.25;1.13;;;;;;;24.88;100.00;100188.91;4987574;28;20483;-73
2023/06/18 07:47:51;;;;;;;3.20;2.10;;;;;;;25.10;100.00;100186.59;4987187;28;20039;-72
2023/06/18 07:50:16;;;;;;;3.20;2.40;;;;;;;25.25;100.00;100174.88;4987299;28;20053;-73
2023/06/18 07:52:42;;;;;;;3.90;1.80;;;;;;;25.14;100.00;100114.75;4987524;28;20386;-73
2023/06/18 07:55:08;;;;;;;3.65;2.08;;;;;;;24.93;100.00;100127.72;4985358;28;20526;-73
2023/06/18 07:57:33;;;;;;;5.32;1.92;;;;;;;25.56;100.00;100175.53;4987079;28;20067;-73
2023/06/18 07:59:59;;;;;;;8.10;2.40;;;;;;;25.85;100.00;100181.69;4986854;28;20765;-73
2023/06/18 08:02:26;;;;;;;2.95;1.95;;;;;;;25.64;100.00;100167.84;4987183;28;20137;-73
2023/06/18 08:04:51;;;;;;;3.30;1.98;;;;;;;26.00;100.00;100201.31;4986318;28;20053;-72
2023/06/18 08:07:17;;;;;;;6.03;2.13;;;;;;;26.20;100.00;100194.59;4989507;28;20538;-74
2023/06/18 08:09:42;;;;;;;2.22;1.58;;;;;;;25.99;100.00;100124.31;4991077;28;20090;-72
2023/06/18 08:12:11;;;;;;;1.98;1.15;;;;;;;25.94;100.00;100088.78;4992741;28;20042;-73
2023/06/18 08:14:37;;;;;;;3.15;1.48;;;;;;;25.70;100.00;100212.25;4993152;28;20117;-73
2023/06/18 08:17:04;;;;;;;4.00;1.90;;;;;;;25.81;100.00;100118.31;4992070;28;20573;-74
2023/06/18 08:19:29;;;;;;;3.70;1.85;;;;;;;26.40;100.00;100203.94;4991629;28;20038;-73
2023/06/18 08:21:55;;;;;;;3.15;1.85;;;;;;;25.92;100.00;100133.75;4992002;28;20843;-73
2023/06/18 08:24:20;;;;;;;3.22;1.73;;;;;;;26.09;100.00;100103.88;4990586;28;20525;-73
2023/06/18 08:26:46;;;;;;;2.80;1.70;;;;;;;26.87;100.00;100217.75;4992184;28;20482;-73
2023/06/18 08:29:11;;;;;;;3.20;1.73;;;;;;;26.35;100.00;100133.47;4993430;28;20106;-73
2023/06/18 08:31:40;;;;;;;4.40;1.50;;;;;;;26.74;100.00;100128.94;4993665;28;20104;-73
2023/06/18 08:34:06;;;;;;;2.83;1.90;;;;;;;26.76;100.00;100223.91;4992681;28;20061;-74
2023/06/18 08:36:32;;;;;;;3.50;2.00;;;;;;;27.28;100.00;100204.03;4991814;28;20049;-73
2023/06/18 08:38:59;;;;;;;2.35;1.58;;;;;;;26.87;100.00;100137.84;5023178;28;20114;-73
2023/06/18 08:41:26;;;;;;;2.58;1.25;;;;;;;26.60;100.00;100129.06;4992005;28;20038;-73
2023/06/18 08:43:51;;;;;;;2.00;1.35;;;;;;;26.78;100.00;100167.25;4991116;28;20045;-73
2023/06/18 08:46:17;;;;;;;1.90;1.33;;;;;;;27.75;100.00;100218.53;5020759;28;20034;-73
2023/06/18 08:48:52;;;;;;;2.50;1.30;;;;;;;27.67;100.00;100229.00;4986396;28;20113;-73
2023/06/18 08:51:19;;;;;;;1.98;1.45;;;;;;;26.76;100.00;100091.13;4991967;28;20042;-73
2023/06/18 08:53:50;;;;;;;2.08;1.33;;;;;;;28.11;100.00;100215.88;4989978;28;20833;-73
2023/06/18 08:56:20;;;;;;;1.58;1.25;;;;;;;27.33;100.00;100185.69;4990015;28;20565;-73
2023/06/18 08:58:51;;;;;;;2.40;1.13;;;;;;;26.82;100.00;100088.00;4990386;28;20040;-73
2023/06/18 09:01:18;;;;;;;2.22;1.13;;;;;;;27.87;100.00;100116.97;4990464;28;20069;-72
2023/06/18 09:03:44;;;;;;;2.15;1.20;;;;;;;28.11;100.00;100125.00;4990019;28;20026;-73
2023/06/18 09:06:11;;;;;;;8.13;1.38;;;;;;;27.68;100.00;100125.59;4990118;28;20034;-73
2023/06/18 09:08:38;;;;;;;1.92;1.27;;;;;;;28.83;100.00;100208.44;4989874;28;20038;-74
2023/06/18 09:11:05;;;;;;;3.33;1.73;;;;;;;28.89;100.00;100138.69;4989796;28;20026;-74
2023/06/18 09:13:30;;;;;;;3.25;2.05;;;;;;;26.97;100.00;100145.25;4990243;28;20046;-74
2023/06/18 09:15:56;;;;;;;2.72;1.67;;;;;;;27.22;100.00;100199.09;4989983;28;20042;-74
2023/06/18 09:18:24;;;;;;;2.45;1.52;;;;;;;27.39;100.00;100205.94;4989142;28;20494;-73
2023/06/18 09:20:52;;;;;;;2.75;1.98;;;;;;;26.86;100.00;100176.53;4989943;28;20038;-74
2023/06/18 09:23:18;;;;;;;2.88;1.48;;;;;;;26.79;100.00;100196.78;4990298;28;20034;-73
2023/06/18 09:25:54;;;;;;;2.65;1.77;;;;;;;26.19;100.00;100116.69;4989445;28;20220;-73
2023/06/18 09:28:20;;;;;;;2.47;1.67;;;;;;;27.63;100.00;100194.31;4989792;28;20049;-73
2023/06/18 09:30:54;;;;;;;3.03;1.63;;;;;;;28.21;100.00;100208.78;4989406;28;20687;-73
2023/06/18 09:33:32;;;;;;;4.30;2.25;;;;;;;28.79;100.00;100204.25;4989225;28;20030;-73
2023/06/18 09:36:06;;;;;;;4.55;3.13;;;;;;;28.82;100.00;100114.91;4988852;28;20534;-73
2023/06/18 09:38:35;;;;;;;2.30;1.70;;;;;;;29.53;100.00;100205.56;4989181;28;20037;-73
2023/06/18 09:41:01;;;;;;;3.20;1.48;;;;;;;29.08;100.00;100114.63;4988008;28;20038;-73
2023/06/18 09:43:36;;;;;;;2.20;1.23;;;;;;;28.34;100.00;100198.78;4988746;28;20030;-73
2023/06/18 09:46:06;;;;;;;2.70;1.55;;;;;;;27.64;100.00;100187.94;4989502;28;20040;-72
2023/06/18 09:48:46;;;;;;;2.38;1.40;;;;;;;28.78;100.00;100182.78;4988397;28;20029;-73
2023/06/18 09:51:13;;;;;;;2.35;1.40;;;;;;;29.00;100.00;100180.06;4988939;28;20383;-73
2023/06/18 09:53:39;;;;;;;3.10;1.60;;;;;;;29.20;99.19;100170.38;4987633;28;20038;-71
2023/06/18 09:56:14;;;;;;;2.30;1.63;;;;;;;29.52;98.57;100198.44;4986960;28;20054;-73
2023/06/18 09:58:44;;;;;;;3.33;1.95;;;;;;;29.60;94.88;100147.28;4988928;28;20038;-73
2023/06/18 10:01:10;;;;;;;3.05;1.83;;;;;;;30.31;97.77;100181.91;4988352;28;20045;-73
2023/06/18 10:03:36;;;;;;;3.60;2.00;;;;;;;30.56;92.52;100162.53;4987384;28;20038;-73
2023/06/18 10:06:10;;;;;;;3.08;1.48;;;;;;;30.39;85.72;100090.91;4988862;28;20034;-73
2023/06/18 10:08:38;;;;;;;2.40;1.42;;;;;;;31.08;86.62;100176.88;4988790;28;20042;-73
2023/06/18 10:11:07;;;;;;;1.65;1.20;;;;;;;29.86;87.06;100059.38;4986913;28;20033;-73
2023/06/18 10:13:38;;;;;;;3.72;1.30;;;;;;;28.94;86.38;100098.66;4988768;28;20548;-73
2023/06/18 10:16:05;;;;;;;1.40;1.08;;;;;;;28.79;95.76;100139.44;4988705;28;20034;-74
2023/06/18 10:18:32;;;;;;;1.88;1.45;;;;;;;28.29;94.68;100079.53;4988280;28;20061;-74
2023/06/18 10:21:04;;;;;;;2.65;1.75;;;;;;;28.45;94.42;100065.66;4988472;28;20037;-74
2023/06/18 10:23:32;;;;;;;2.00;1.58;;;;;;;29.25;91.11;100130.31;4988556;28;20038;-74
2023/06/18 10:26:00;;;;;;;3.50;1.27;;;;;;;30.01;81.26;100105.88;4988446;28;20037;-74
2023/06/18 10:28:27;;;;;;;1.65;1.17;;;;;;;30.35;83.40;100135.50;4988605;28;20041;-73
2023/06/18 10:30:53;;;;;;;3.35;1.92;;;;;;;29.49;85.67;100080.56;4987046;28;20486;-73
2023/06/18 10:33:19;;;;;;;3.90;2.30;;;;;;;28.90;96.65;100137.72;4988258;28;20038;-74
2023/06/18 10:35:47;;;;;;;3.25;2.10;;;;;;;28.42;96.79;100085.69;4988448;28;20088;-74
2023/06/18 10:38:12;;;;;;;2.72;1.33;;;;;;;28.33;100.00;100096.31;4988207;28;20093;-73
2023/06/18 10:40:38;;;;;;;3.40;2.20;;;;;;;27.79;100.00;100036.66;4987879;28;20453;-73
2023/06/18 10:43:05;;;;;;;3.05;1.90;;;;;;;27.31;100.00;100027.81;4988126;28;20030;-74
2023/06/18 10:45:31;;;;;;;6.47;2.25;;;;;;;27.57;100.00;100021.25;4988237;28;20072;-74
2023/06/18 10:48:16;;;;;;;3.15;2.53;;;;;;;28.95;89.47;100038.25;4987307;28;20502;-74
2023/06/18 10:51:16;;;;;;;3.05;2.38;;;;;;;28.63;91.73;100133.53;4986298;28;20501;-74
2023/06/18 10:53:44;;;;;;;3.10;1.77;;;;;;;27.64;100.00;100053.16;4987975;28;20558;-75
2023/06/18 10:56:10;;;;;;;7.32;1.77;;;;;;;27.47;100.00;100038.28;4985928;28;20518;-74
2023/06/18 10:58:38;;;;;;;2.55;1.70;;;;;;;27.69;100.00;100107.56;4986097;28;20034;-73
2023/06/18 11:01:05;;;;;;;3.55;1.92;;;;;;;27.74;100.00;100143.13;4987257;28;20047;-73
2023/06/18 11:03:38;;;;;;;3.28;1.85;;;;;;;27.29;100.00;100118.66;4986274;28;20406;-74
2023/06/18 11:06:08;;;;;;;3.45;1.55;;;;;;;27.47;100.00;100130.78;4987875;28;20037;-75
2023/06/18 11:08:35;;;;;;;3.10;1.70;;;;;;;27.14;100.00;100056.84;4986393;28;20116;-73
2023/06/18 11:11:10;;;;;;;2.22;1.42;;;;;;;27.95;100.00;100152.31;4985829;28;20031;-73
2023/06/18 11:13:40;;;;;;;2.25;1.48;;;;;;;27.54;100.00;100148.19;4985696;28;20398;-73
2023/06/18 11:16:05;;;;;;;2.70;1.85;;;;;;;27.27;100.00;100115.22;4987508;28;20038;-74
2023/06/18 11:18:32;;;;;;;1.95;1.27;;;;;;;27.29;100.00;100067.47;4986727;28;20100;-74